createdAt,value
2019-01-23T00:02:00.504Z,24.43
2019-01-23T00:07:10.464Z,22.97
2019-01-23T00:12:16.112Z,21.97
2019-01-23T00:17:21.754Z,25.40
2019-01-23T00:22:27.368Z,21.07
2019-01-23T00:27:33.029Z,19.87
2019-01-23T00:32:40.500Z,21.77
2019-01-23T00:37:46.538Z,21.67
2019-01-23T00:42:52.157Z,21.90
2019-01-23T00:47:57.781Z,22.33
2019-01-23T00:53:03.490Z,20.43
2019-01-23T00:58:09.125Z,19.70
2019-01-23T01:03:14.791Z,20.25
2019-01-23T01:08:20.417Z,19.30
2019-01-23T01:13:26.045Z,16.80
2019-01-23T01:18:33.024Z,17.53
2019-01-23T01:23:38.609Z,16.00
2019-01-23T01:28:44.292Z,17.10
2019-01-23T01:33:49.907Z,18.33
2019-01-23T01:38:55.677Z,15.63
2019-01-23T01:44:01.566Z,18.00
2019-01-23T01:49:10.138Z,16.73
2019-01-23T01:54:15.802Z,19.40
2019-01-23T01:59:23.025Z,19.30
2019-01-23T02:04:28.599Z,17.17
2019-01-23T02:09:35.522Z,17.50
2019-01-23T02:14:41.372Z,19.70
2019-01-23T02:19:47.066Z,21.97
2019-01-23T02:24:52.704Z,19.50
2019-01-23T02:29:58.371Z,19.50
2019-01-23T02:35:04.569Z,20.93
2019-01-23T02:40:13.910Z,18.87
2019-01-23T02:45:23.052Z,19.00
2019-01-23T02:50:28.684Z,17.80
2019-01-23T02:55:34.556Z,18.47
2019-01-23T03:00:40.201Z,17.50
2019-01-23T03:05:45.875Z,17.70
2019-01-23T03:10:51.479Z,18.17
2019-01-23T03:15:57.191Z,17.93
2019-01-23T03:21:03.007Z,20.00
2019-01-23T03:26:10.185Z,18.40
2019-01-23T03:31:15.990Z,18.33
2019-01-23T03:36:21.712Z,18.93
2019-01-23T03:41:27.331Z,21.07
2019-01-23T03:46:32.932Z,19.80
2019-01-23T03:51:38.546Z,21.87
2019-01-23T03:56:44.966Z,21.60
2019-01-23T04:01:50.600Z,22.60
2019-01-23T04:06:56.282Z,19.93
2019-01-23T04:12:01.946Z,20.50
2019-01-23T04:17:08.039Z,21.13
2019-01-23T04:22:13.761Z,22.67
2019-01-23T04:27:19.479Z,23.03
2019-01-23T04:32:25.087Z,25.30
2019-01-23T04:37:30.993Z,22.90
2019-01-23T04:42:36.647Z,25.00
2019-01-23T04:47:42.252Z,26.70
2019-01-23T04:53:21.958Z,26.60
2019-01-23T04:58:29.131Z,25.17
2019-01-23T05:03:37.952Z,22.87
2019-01-23T05:08:46.329Z,23.37
2019-01-23T05:13:51.972Z,20.50
2019-01-23T05:18:57.584Z,18.60
2019-01-23T05:24:03.649Z,21.30
2019-01-23T05:29:09.693Z,18.43
2019-01-23T05:34:15.670Z,14.43
2019-01-23T05:39:21.307Z,13.40
2019-01-23T05:44:26.957Z,18.87
2019-01-23T05:49:32.594Z,15.60
2019-01-23T05:54:38.670Z,21.50
2019-01-23T05:59:44.828Z,21.17
2019-01-23T06:04:51.971Z,22.77
2019-01-23T06:10:04.579Z,24.03
2019-01-23T06:15:11.744Z,23.00
2019-01-23T06:20:23.378Z,23.77
2019-01-23T06:25:29.077Z,26.23
2019-01-23T06:30:36.486Z,26.50
2019-01-23T06:35:42.975Z,24.97
2019-01-23T06:40:51.678Z,22.73
2019-01-23T06:46:00.469Z,23.87
2019-01-23T06:51:08.475Z,23.50
2019-01-23T06:56:18.123Z,23.50
2019-01-23T07:01:24.735Z,24.47
2019-01-23T07:06:30.399Z,22.60
2019-01-23T07:11:36.010Z,24.00
2019-01-23T07:16:41.616Z,24.83
2019-01-23T07:21:47.285Z,21.67
2019-01-23T07:26:53.011Z,22.47
2019-01-23T07:31:58.593Z,22.90
2019-01-23T07:37:05.763Z,22.27
2019-01-23T07:42:11.722Z,24.33
2019-01-23T07:47:17.310Z,23.40
2019-01-23T07:52:22.937Z,23.50
2019-01-23T07:57:28.542Z,21.50
2019-01-23T08:02:34.376Z,23.20
2019-01-23T08:07:41.461Z,21.20
2019-01-23T08:12:47.432Z,21.13
2019-01-23T08:17:53.073Z,23.00
2019-01-23T08:22:58.880Z,22.73
2019-01-23T08:28:05.810Z,23.30
2019-01-23T08:33:11.439Z,23.03
2019-01-23T08:38:17.139Z,21.30
2019-01-23T08:43:22.797Z,20.73
2019-01-23T08:48:28.458Z,22.50
2019-01-23T08:53:34.054Z,19.03
2019-01-23T08:58:39.738Z,20.23
2019-01-23T09:03:45.335Z,16.00
2019-01-23T09:08:51.378Z,20.43
2019-01-23T09:13:56.965Z,17.70
2019-01-23T09:19:02.673Z,17.87
2019-01-23T09:24:08.288Z,19.30
2019-01-23T09:29:14.350Z,17.47
2019-01-23T09:34:49.350Z,16.67
2019-01-23T09:40:34.313Z,15.90
2019-01-23T09:45:58.356Z,12.30
2019-01-23T09:51:46.628Z,15.50
2019-01-23T09:56:52.266Z,16.90
2019-01-23T10:01:57.872Z,16.27
2019-01-23T10:07:03.499Z,18.17
2019-01-23T10:12:09.148Z,19.27
2019-01-23T10:17:14.778Z,18.80
2019-01-23T10:22:20.387Z,18.90
2019-01-23T10:27:26.311Z,18.57
2019-01-23T10:32:35.153Z,18.17
2019-01-23T10:37:40.965Z,17.30
2019-01-23T10:42:46.837Z,16.27
2019-01-23T10:47:56.184Z,14.50
2019-01-23T10:53:01.068Z,15.60
2019-01-23T10:58:06.884Z,16.40
2019-01-23T11:03:12.503Z,15.17
2019-01-23T11:08:18.210Z,13.70
2019-01-23T11:13:23.799Z,16.10
2019-01-23T11:18:30.360Z,13.90
2019-01-23T11:23:35.963Z,15.47
2019-01-23T11:28:41.569Z,15.33
2019-01-23T11:33:47.178Z,17.27
2019-01-23T11:38:52.821Z,16.87
2019-01-23T11:43:58.875Z,18.07
2019-01-23T11:49:04.645Z,17.93
2019-01-23T11:54:10.277Z,16.43
2019-01-23T11:59:15.900Z,15.93
2019-01-23T12:04:22.194Z,15.37
2019-01-23T12:09:27.772Z,12.33
2019-01-23T12:14:33.387Z,14.10
2019-01-23T12:19:39.008Z,12.80
2019-01-23T12:24:44.674Z,14.13
2019-01-23T12:29:50.797Z,16.53
2019-01-23T12:34:56.821Z,17.80
2019-01-23T12:40:02.440Z,16.37
2019-01-23T12:45:13.785Z,17.07
2019-01-23T12:50:22.517Z,18.20
2019-01-23T12:55:32.370Z,16.17
2019-01-23T13:00:38.477Z,17.10
2019-01-23T13:05:44.115Z,16.30
2019-01-23T13:10:50.892Z,18.33
2019-01-23T13:15:56.492Z,17.53
2019-01-23T13:21:02.109Z,18.10
2019-01-23T13:26:09.136Z,18.47
2019-01-23T13:31:14.736Z,16.90
2019-01-23T13:36:20.507Z,16.47
2019-01-23T13:41:26.109Z,14.43
2019-01-23T13:46:32.217Z,13.27
2019-01-23T13:51:37.797Z,12.17
2019-01-23T13:56:43.408Z,11.50
2019-01-23T14:01:48.967Z,27.20
2019-01-23T14:06:54.568Z,29.37
2019-01-23T14:12:00.586Z,33.17
2019-01-23T14:17:06.472Z,36.90
2019-01-23T14:22:12.630Z,37.80
2019-01-23T18:39:44.644Z,27.53
2019-01-23T18:45:21.678Z,26.07
2019-01-23T18:51:26.709Z,28.53
2019-01-23T18:56:34.231Z,27.40
2019-01-23T19:01:45.974Z,28.07
2019-01-23T19:06:51.937Z,27.07
2019-01-23T19:12:00.144Z,28.50
2019-01-23T19:17:08.603Z,26.97
2019-01-23T19:22:14.916Z,27.20
2019-01-23T19:27:21.569Z,23.57
2019-01-23T19:32:27.554Z,24.77
2019-01-23T19:37:34.935Z,24.57
2019-01-23T19:42:44.148Z,26.67
2019-01-23T19:47:55.002Z,27.40
2019-01-23T19:53:02.133Z,25.10
2019-01-23T19:58:12.023Z,25.90
2019-01-23T20:03:20.545Z,27.47
2019-01-23T20:08:26.556Z,26.37
2019-01-23T20:13:32.916Z,29.47
2019-01-23T20:18:51.098Z,29.90
2019-01-23T20:24:00.546Z,27.10
2019-01-23T20:29:08.864Z,27.47
2019-01-23T20:34:29.191Z,30.00
2019-01-23T20:39:36.216Z,27.10
2019-01-23T20:44:43.964Z,31.40
2019-01-23T20:49:50.475Z,36.23
2019-01-23T20:54:58.832Z,29.03
2019-01-23T21:00:05.735Z,30.60
2019-01-23T21:05:14.109Z,28.20
2019-01-23T21:10:20.802Z,28.13
2019-01-23T21:15:28.990Z,27.97
2019-01-23T21:20:41.629Z,27.93
2019-01-23T21:25:50.014Z,27.33
2019-01-23T21:30:56.224Z,27.83
2019-01-23T21:36:03.446Z,28.97
2019-01-23T21:41:11.082Z,30.50
2019-01-23T21:46:17.282Z,31.30
2019-01-23T21:51:23.056Z,28.60
2019-01-23T21:56:28.684Z,29.37
2019-01-23T22:01:34.687Z,30.77
2019-01-23T22:06:41.321Z,28.53
2019-01-23T22:11:47.229Z,28.47
2019-01-23T22:16:55.192Z,24.57
2019-01-23T22:22:03.268Z,24.80
2019-01-23T22:27:09.304Z,26.57
2019-01-23T22:32:14.935Z,26.80
2019-01-23T22:37:28.668Z,25.47
2019-01-23T22:42:35.812Z,25.83
2019-01-23T22:47:41.431Z,26.37
2019-01-23T22:52:48.504Z,27.60
2019-01-23T22:57:55.700Z,29.20
2019-01-23T23:03:04.026Z,28.17
2019-01-23T23:08:11.718Z,28.70
2019-01-23T23:13:22.335Z,30.80
2019-01-23T23:18:28.346Z,26.10
2019-01-23T23:23:35.399Z,32.77
2019-01-23T23:28:40.897Z,30.73
2019-01-23T23:33:46.462Z,30.70
2019-01-23T23:38:52.233Z,30.57
2019-01-23T23:43:58.136Z,34.30
2019-01-23T23:55:00.884Z,34.70
